createdAt,value
2023-03-18T00:00:44.986Z,14.90
2023-03-18T00:01:54.071Z,14.60
2023-03-18T00:02:57.030Z,14.00
2023-03-18T00:04:01.150Z,15.70
2023-03-18T00:05:05.614Z,10.80
2023-03-18T00:06:14.164Z,11.50
2023-03-18T00:07:17.294Z,12.40
2023-03-18T00:08:20.223Z,12.00
2023-03-18T00:09:24.042Z,13.60
2023-03-18T00:10:26.892Z,11.30
2023-03-18T00:11:30.647Z,12.80
2023-03-18T00:12:33.563Z,11.60
2023-03-18T00:13:36.888Z,11.90
2023-03-18T00:14:39.710Z,10.80
2023-03-18T00:15:42.506Z,11.90
2023-03-18T00:16:45.930Z,13.30
2023-03-18T00:17:48.723Z,13.40
2023-03-18T00:18:52.146Z,11.50
2023-03-18T00:19:55.312Z,10.20
2023-03-18T00:21:00.162Z,10.90
2023-03-18T00:22:03.068Z,9.50
2023-03-18T00:23:08.628Z,12.90
2023-03-18T00:24:12.418Z,11.30
2023-03-18T00:25:15.532Z,11.50
2023-03-18T00:26:18.294Z,13.60
2023-03-18T00:27:21.354Z,10.10
2023-03-18T00:28:25.432Z,13.50
2023-03-18T00:29:28.218Z,11.30
2023-03-18T00:30:31.406Z,13.40
2023-03-18T00:31:34.432Z,11.20
2023-03-18T00:32:38.827Z,13.60
2023-03-18T00:33:46.001Z,11.70
2023-03-18T00:34:50.807Z,14.40
2023-03-18T00:35:54.782Z,11.10
2023-03-18T00:36:57.677Z,14.40
2023-03-18T00:38:00.590Z,11.90
2023-03-18T00:39:04.015Z,11.40
2023-03-18T00:40:17.237Z,12.00
2023-03-18T00:41:20.394Z,12.30
2023-03-18T00:42:23.884Z,11.90
2023-03-18T00:43:29.557Z,11.20
2023-03-18T00:44:33.170Z,13.10
2023-03-18T00:45:41.190Z,12.90
2023-03-18T00:46:44.006Z,12.20
2023-03-18T00:47:48.513Z,9.00
2023-03-18T00:48:53.112Z,11.30
2023-03-18T00:49:55.996Z,14.20
2023-03-18T00:50:59.423Z,13.80
2023-03-18T00:52:02.282Z,9.60
2023-03-18T00:53:06.121Z,12.00
2023-03-18T00:54:12.873Z,14.80
2023-03-18T00:55:15.820Z,10.60
2023-03-18T00:56:22.156Z,10.40
2023-03-18T00:57:25.291Z,13.60
2023-03-18T00:58:28.093Z,11.20
2023-03-18T00:59:33.221Z,12.80
2023-03-18T01:00:37.920Z,13.90
2023-03-18T01:01:41.054Z,13.90
2023-03-18T01:02:44.373Z,10.90
2023-03-18T01:03:49.365Z,13.50
2023-03-18T01:04:52.355Z,11.60
2023-03-18T01:05:55.621Z,11.10
2023-03-18T01:06:58.436Z,12.60
2023-03-18T01:08:01.893Z,11.40
2023-03-18T01:09:06.752Z,12.40
2023-03-18T01:10:12.702Z,11.50
2023-03-18T01:11:16.518Z,11.70
2023-03-18T01:12:19.311Z,12.80
2023-03-18T01:13:23.961Z,15.60
2023-03-18T01:14:26.809Z,13.00
2023-03-18T01:15:29.709Z,11.70
2023-03-18T01:16:32.584Z,10.90
2023-03-18T01:17:35.423Z,11.80
2023-03-18T01:18:38.448Z,15.70
2023-03-18T01:19:42.451Z,12.70
2023-03-18T01:20:45.518Z,12.00
2023-03-18T01:21:48.697Z,10.30
2023-03-18T01:22:51.549Z,10.80
2023-03-18T01:23:54.716Z,11.40
2023-03-18T01:24:58.773Z,11.00
2023-03-18T01:26:09.794Z,10.50
2023-03-18T01:27:14.037Z,10.70
2023-03-18T01:28:18.271Z,10.30
2023-03-18T01:29:23.762Z,10.20
2023-03-18T01:30:28.532Z,10.30
2023-03-18T01:31:32.076Z,14.00
2023-03-18T01:32:39.548Z,12.60
2023-03-18T01:33:42.497Z,12.00
2023-03-18T01:34:45.554Z,11.30
2023-03-18T01:35:54.723Z,11.30
2023-03-18T01:36:58.424Z,11.50
2023-03-18T01:38:05.551Z,14.00
2023-03-18T01:39:10.338Z,14.80
2023-03-18T01:40:16.124Z,11.10
2023-03-18T01:41:20.410Z,11.00
2023-03-18T01:42:23.274Z,12.10
2023-03-18T01:43:32.323Z,12.80
2023-03-18T01:44:36.238Z,10.40
2023-03-18T01:45:40.468Z,11.80
2023-03-18T01:46:45.929Z,13.00
2023-03-18T01:47:49.941Z,12.20
2023-03-18T01:48:53.541Z,10.40
2023-03-18T01:49:56.409Z,11.10
2023-03-18T01:51:04.564Z,11.50
2023-03-18T01:52:12.925Z,13.70
2023-03-18T01:53:17.948Z,8.20
2023-03-18T01:54:22.642Z,10.50
2023-03-18T01:55:29.805Z,9.40
2023-03-18T01:56:36.714Z,12.60
2023-03-18T01:57:42.094Z,9.80
2023-03-18T01:58:48.369Z,10.30
2023-03-18T01:59:53.900Z,9.40
2023-03-18T02:01:09.537Z,10.70
2023-03-18T02:02:16.310Z,13.90
2023-03-18T02:03:20.216Z,9.10
2023-03-18T02:04:27.741Z,12.40
2023-03-18T02:05:30.708Z,8.40
2023-03-18T02:06:33.566Z,11.00
2023-03-18T02:07:38.098Z,10.80
2023-03-18T02:08:40.957Z,13.10
2023-03-18T02:09:46.099Z,8.60
2023-03-18T02:10:49.778Z,12.10
2023-03-18T02:13:04.110Z,9.00
2023-03-18T02:14:14.338Z,10.80
2023-03-18T02:15:21.435Z,9.30
2023-03-18T02:16:28.862Z,12.20
2023-03-18T02:17:37.000Z,7.80
2023-03-18T02:18:51.191Z,8.40
2023-03-18T02:20:05.224Z,8.70
2023-03-18T02:21:32.214Z,11.00
2023-03-18T02:22:46.898Z,9.60
2023-03-18T02:23:55.375Z,9.70
2023-03-18T02:25:10.158Z,9.00
2023-03-18T02:26:23.690Z,11.20
2023-03-18T02:27:32.106Z,8.60
2023-03-18T02:28:38.007Z,9.50
2023-03-18T02:29:42.516Z,10.20
2023-03-18T02:30:54.211Z,10.00
2023-03-18T02:32:01.466Z,9.50
2023-03-18T02:33:06.928Z,9.40
2023-03-18T02:34:11.774Z,7.70
2023-03-18T02:35:15.005Z,9.30
2023-03-18T02:36:22.699Z,10.20
2023-03-18T02:37:26.747Z,11.70
2023-03-18T02:38:30.028Z,9.00
2023-03-18T02:39:33.301Z,10.10
2023-03-18T02:40:39.718Z,10.20
2023-03-18T02:41:47.401Z,9.60
2023-03-18T02:42:51.531Z,12.10
2023-03-18T02:43:55.304Z,10.90
2023-03-18T02:44:59.817Z,9.90
2023-03-18T02:46:31.618Z,9.20
2023-03-18T02:47:34.478Z,9.40
2023-03-18T02:48:40.226Z,9.10
2023-03-18T02:49:43.407Z,11.00
2023-03-18T02:50:47.472Z,7.90
2023-03-18T02:51:51.648Z,8.90
2023-03-18T02:52:54.485Z,11.50
2023-03-18T02:54:04.094Z,11.30
2023-03-18T02:55:07.224Z,11.00
2023-03-18T02:56:11.816Z,7.60
2023-03-18T02:57:15.889Z,10.10
2023-03-18T02:58:21.244Z,12.60
2023-03-18T02:59:24.776Z,12.80
2023-03-18T03:00:27.617Z,7.50
2023-03-18T03:01:33.726Z,12.80
2023-03-18T03:02:37.124Z,8.20
2023-03-18T03:03:41.038Z,10.90
2023-03-18T03:04:46.133Z,8.30
2023-03-18T03:05:51.106Z,8.70
2023-03-18T03:06:57.070Z,8.00
2023-03-18T03:08:16.279Z,9.10
2023-03-18T03:09:22.687Z,10.50
2023-03-18T03:10:26.283Z,8.60
2023-03-18T03:11:29.303Z,9.30
2023-03-18T03:12:37.892Z,7.60
2023-03-18T03:13:42.140Z,9.00
2023-03-18T03:14:45.922Z,11.00
2023-03-18T03:15:49.742Z,9.60
2023-03-18T03:16:52.930Z,9.40
2023-03-18T03:17:55.896Z,7.10
2023-03-18T03:18:59.004Z,8.40
2023-03-18T03:20:02.071Z,7.60
2023-03-18T03:21:05.408Z,8.30
2023-03-18T03:22:08.327Z,10.50
2023-03-18T03:23:14.504Z,9.60
2023-03-18T03:24:17.307Z,7.60
2023-03-18T03:25:20.577Z,11.80
2023-03-18T03:26:23.736Z,9.70
2023-03-18T03:27:27.856Z,8.70
2023-03-18T03:28:32.870Z,8.30
2023-03-18T03:29:35.684Z,6.30
2023-03-18T03:30:39.335Z,11.40
2023-03-18T03:31:42.217Z,12.30
2023-03-18T03:32:45.230Z,6.10
2023-03-18T03:33:48.057Z,6.90
2023-03-18T03:34:50.852Z,8.60
2023-03-18T03:35:54.384Z,9.40
2023-03-18T03:36:57.231Z,6.50
2023-03-18T03:38:02.063Z,7.80
2023-03-18T03:39:06.205Z,8.60
2023-03-18T03:40:14.825Z,6.20
2023-03-18T03:41:18.013Z,5.40
2023-03-18T03:42:20.774Z,7.10
2023-03-18T03:43:23.878Z,7.30
2023-03-18T03:44:26.631Z,9.20
2023-03-18T03:45:29.700Z,9.10
2023-03-18T03:46:32.887Z,7.60
2023-03-18T03:47:36.273Z,7.00
2023-03-18T03:48:40.130Z,7.30
2023-03-18T03:49:47.112Z,6.50
2023-03-18T03:50:51.676Z,8.60
2023-03-18T03:51:54.513Z,7.20
2023-03-18T03:52:58.896Z,8.60
2023-03-18T03:54:04.085Z,7.30
2023-03-18T03:55:09.596Z,7.30
2023-03-18T03:56:12.671Z,10.70
2023-03-18T03:57:15.704Z,5.60
2023-03-18T03:58:18.764Z,9.50
2023-03-18T03:59:21.625Z,6.90
2023-03-18T04:00:50.760Z,8.50
2023-03-18T04:01:53.568Z,5.90
2023-03-18T04:02:56.871Z,9.00
2023-03-18T04:04:02.919Z,5.90
2023-03-18T04:05:07.260Z,6.70
2023-03-18T04:06:10.043Z,7.20
2023-03-18T04:07:16.110Z,6.40
2023-03-18T04:08:19.011Z,7.80
2023-03-18T04:09:22.290Z,10.70
2023-03-18T04:10:26.497Z,7.40
2023-03-18T04:11:29.888Z,7.70
2023-03-18T04:12:33.492Z,7.50
2023-03-18T04:13:36.756Z,7.10
2023-03-18T04:14:39.853Z,6.50
2023-03-18T04:15:42.751Z,8.20
2023-03-18T04:16:48.955Z,5.50
2023-03-18T04:17:52.025Z,7.90
2023-03-18T04:18:54.891Z,9.10
2023-03-18T04:19:59.496Z,7.50
2023-03-18T04:21:06.011Z,5.90
2023-03-18T04:22:29.667Z,8.40
2023-03-18T04:23:33.624Z,8.70
2023-03-18T04:24:36.722Z,7.30
2023-03-18T04:25:39.708Z,7.20
2023-03-18T04:26:42.783Z,7.60
2023-03-18T04:27:45.791Z,9.20
2023-03-18T04:28:49.148Z,7.00
2023-03-18T04:29:52.325Z,10.00
2023-03-18T04:30:55.562Z,6.40
2023-03-18T04:31:59.123Z,9.10
2023-03-18T04:33:03.571Z,8.50
2023-03-18T04:34:07.004Z,6.40
2023-03-18T04:35:11.197Z,7.50
2023-03-18T04:36:14.204Z,8.00
2023-03-18T04:37:20.150Z,9.50
2023-03-18T04:38:24.652Z,8.60
2023-03-18T04:39:27.749Z,7.10
2023-03-18T04:40:31.221Z,6.30
2023-03-18T04:41:34.571Z,5.60
2023-03-18T04:42:39.689Z,10.00
2023-03-18T04:43:44.769Z,9.20
2023-03-18T04:44:47.822Z,7.10
2023-03-18T04:45:51.939Z,8.40
2023-03-18T04:46:55.260Z,7.80
2023-03-18T04:47:58.581Z,6.90
2023-03-18T04:49:02.187Z,7.10
2023-03-18T04:50:06.159Z,10.60
2023-03-18T04:51:09.587Z,8.30
2023-03-18T04:52:12.650Z,8.10
2023-03-18T04:53:16.724Z,9.40
2023-03-18T04:54:20.582Z,7.00
2023-03-18T04:55:24.585Z,8.70
2023-03-18T04:56:28.131Z,10.30
2023-03-18T04:57:31.806Z,6.50
2023-03-18T04:58:35.003Z,9.50
2023-03-18T04:59:45.451Z,7.80
2023-03-18T05:00:48.260Z,7.00
2023-03-18T05:01:58.354Z,7.80
2023-03-18T05:03:03.110Z,8.50
2023-03-18T05:04:06.808Z,7.80
2023-03-18T05:05:19.001Z,9.30
2023-03-18T05:06:26.974Z,9.40
2023-03-18T05:07:56.059Z,10.00
2023-03-18T05:09:00.828Z,7.50
2023-03-18T05:10:08.458Z,8.00
2023-03-18T05:11:16.202Z,6.90
2023-03-18T05:12:19.285Z,8.50
2023-03-18T05:13:22.054Z,9.00
2023-03-18T05:14:25.337Z,9.40
2023-03-18T05:15:28.271Z,10.60
2023-03-18T05:16:33.322Z,9.00
2023-03-18T05:17:36.144Z,6.40
2023-03-18T05:18:41.198Z,9.40
2023-03-18T05:19:48.262Z,8.00
2023-03-18T05:20:55.014Z,8.20
2023-03-18T05:21:58.051Z,7.60
2023-03-18T05:23:02.084Z,9.60
2023-03-18T05:24:15.233Z,6.40
2023-03-18T05:25:20.435Z,5.60
2023-03-18T05:26:23.576Z,7.00
2023-03-18T05:27:28.383Z,7.80
2023-03-18T05:28:35.948Z,6.10
2023-03-18T05:29:48.245Z,11.00
2023-03-18T05:31:03.829Z,5.90
2023-03-18T05:32:08.841Z,7.60
2023-03-18T05:33:12.460Z,7.30
2023-03-18T05:34:20.033Z,5.80
2023-03-18T05:35:23.075Z,7.00
2023-03-18T05:36:26.591Z,10.80
2023-03-18T05:37:33.976Z,6.60
2023-03-18T05:38:41.154Z,9.70
2023-03-18T05:39:45.387Z,6.40
2023-03-18T05:40:50.003Z,11.50
2023-03-18T05:41:56.664Z,8.40
2023-03-18T05:43:02.843Z,6.70
2023-03-18T05:44:13.486Z,7.20
2023-03-18T05:45:17.602Z,5.60
2023-03-18T05:46:27.149Z,6.30
2023-03-18T05:48:06.695Z,10.40
2023-03-18T05:49:15.223Z,7.30
2023-03-18T05:50:37.939Z,4.50
2023-03-18T05:51:42.600Z,7.70
2023-03-18T05:52:47.173Z,8.50
2023-03-18T05:53:54.605Z,5.70
2023-03-18T05:55:01.219Z,5.60
2023-03-18T05:56:07.965Z,5.30
2023-03-18T05:57:11.191Z,7.60
2023-03-18T05:58:14.023Z,8.80
2023-03-18T05:59:17.360Z,6.70
2023-03-18T06:00:31.443Z,8.20
2023-03-18T06:01:34.909Z,7.40
2023-03-18T06:02:39.103Z,8.40
2023-03-18T06:03:42.860Z,8.00
2023-03-18T06:04:46.218Z,7.50
2023-03-18T06:05:49.818Z,8.20
2023-03-18T06:06:53.542Z,9.00
2023-03-18T06:07:57.709Z,7.60
2023-03-18T06:09:01.084Z,6.80
2023-03-18T06:10:04.350Z,6.50
2023-03-18T06:11:08.044Z,6.90
2023-03-18T06:12:12.082Z,6.60
2023-03-18T06:13:15.416Z,9.60
2023-03-18T06:14:19.427Z,5.90
2023-03-18T06:15:22.976Z,8.90
2023-03-18T06:16:28.325Z,8.10
2023-03-18T06:17:31.542Z,6.80
2023-03-18T06:18:35.251Z,5.60
2023-03-18T06:19:38.147Z,8.30
2023-03-18T06:20:41.291Z,8.40
2023-03-18T06:21:44.379Z,6.10
2023-03-18T06:22:51.720Z,5.70
2023-03-18T06:23:54.780Z,4.50
2023-03-18T06:24:58.467Z,6.20
2023-03-18T06:26:01.988Z,7.00
2023-03-18T06:27:07.433Z,12.10
2023-03-18T06:28:10.527Z,6.60
2023-03-18T06:29:13.518Z,9.50
2023-03-18T06:30:18.153Z,6.20
2023-03-18T06:31:22.466Z,7.30
2023-03-18T06:32:28.195Z,8.40
2023-03-18T06:33:32.918Z,8.20
2023-03-18T06:34:36.385Z,5.90
2023-03-18T06:35:39.837Z,8.00
2023-03-18T06:36:42.667Z,7.50
2023-03-18T06:37:48.657Z,7.50
2023-03-18T06:38:52.122Z,7.10
2023-03-18T06:39:55.372Z,8.80
2023-03-18T06:40:59.866Z,7.20
2023-03-18T06:42:03.039Z,6.40
2023-03-18T06:43:14.159Z,5.30
2023-03-18T06:44:19.283Z,6.50
2023-03-18T06:45:22.980Z,6.40
2023-03-18T06:46:43.327Z,7.70
2023-03-18T06:47:46.894Z,8.70
2023-03-18T06:48:49.934Z,8.80
2023-03-18T06:49:57.145Z,9.00
2023-03-18T06:51:08.221Z,5.40
2023-03-18T06:52:14.217Z,9.00
2023-03-18T06:53:17.858Z,6.90
2023-03-18T06:54:21.301Z,6.20
2023-03-18T06:55:26.705Z,6.30
2023-03-18T06:56:30.650Z,8.40
2023-03-18T06:57:42.636Z,4.00
2023-03-18T06:58:45.939Z,7.10
2023-03-18T06:59:49.009Z,7.00
2023-03-18T07:00:51.902Z,5.40
2023-03-18T07:02:00.518Z,6.00
2023-03-18T07:03:04.970Z,7.30
2023-03-18T07:04:08.333Z,5.90
2023-03-18T07:05:12.819Z,8.10
2023-03-18T07:06:18.768Z,5.90
2023-03-18T07:07:22.362Z,7.40
2023-03-18T07:08:25.698Z,8.80
2023-03-18T07:09:28.607Z,10.50
2023-03-18T07:10:33.536Z,5.90
2023-03-18T07:11:41.662Z,6.00
2023-03-18T07:12:48.657Z,7.50
2023-03-18T07:13:53.317Z,6.00
2023-03-18T07:15:07.635Z,7.30
2023-03-18T07:16:11.138Z,7.70
2023-03-18T07:17:14.698Z,7.80
2023-03-18T07:18:17.573Z,5.00
2023-03-18T07:19:22.927Z,5.10
2023-03-18T07:20:27.201Z,5.20
2023-03-18T07:21:30.110Z,5.50
2023-03-18T07:22:33.254Z,5.20
2023-03-18T07:23:36.227Z,6.90
2023-03-18T07:24:39.136Z,5.20
2023-03-18T07:25:44.757Z,7.90
2023-03-18T07:26:47.570Z,5.80
2023-03-18T07:27:50.685Z,7.50
2023-03-18T07:28:54.373Z,7.40
2023-03-18T07:29:57.217Z,8.00
2023-03-18T07:31:00.008Z,8.30
2023-03-18T07:32:04.175Z,7.40
2023-03-18T07:33:07.917Z,5.20
2023-03-18T07:34:12.313Z,4.90
2023-03-18T07:35:15.820Z,4.60
2023-03-18T07:36:19.368Z,7.20
2023-03-18T07:37:22.109Z,5.70
2023-03-18T07:38:25.516Z,6.50
2023-03-18T07:39:28.711Z,6.10
2023-03-18T07:40:31.520Z,8.50
2023-03-18T07:41:37.641Z,5.40
2023-03-18T07:42:40.861Z,9.70
2023-03-18T07:43:43.726Z,8.10
2023-03-18T07:44:46.592Z,3.60
2023-03-18T07:45:49.325Z,6.80
2023-03-18T07:46:52.614Z,4.50
2023-03-18T07:47:55.401Z,5.00
2023-03-18T07:48:58.137Z,4.70
2023-03-18T07:50:01.217Z,5.70
2023-03-18T07:51:04.254Z,6.20
2023-03-18T07:52:07.833Z,5.00
2023-03-18T07:53:10.830Z,7.30
2023-03-18T07:54:14.359Z,6.60
2023-03-18T07:55:17.226Z,4.80
2023-03-18T07:56:20.570Z,5.40
2023-03-18T07:57:24.179Z,7.10
2023-03-18T07:58:27.250Z,5.70
2023-03-18T07:59:30.077Z,5.90
2023-03-18T08:00:33.140Z,6.40
2023-03-18T08:01:35.966Z,5.50
2023-03-18T08:02:39.129Z,4.60
2023-03-18T08:03:43.752Z,4.40
2023-03-18T08:04:46.882Z,7.50
2023-03-18T08:05:49.911Z,4.90
2023-03-18T08:06:53.502Z,6.80
2023-03-18T08:07:56.366Z,6.70
2023-03-18T08:09:00.062Z,6.80
2023-03-18T08:10:04.001Z,8.10
2023-03-18T08:11:08.341Z,5.90
2023-03-18T08:12:11.185Z,5.90
2023-03-18T08:13:14.328Z,7.40
2023-03-18T08:14:17.505Z,7.00
2023-03-18T08:15:22.030Z,5.10
2023-03-18T08:16:25.868Z,11.20
2023-03-18T08:17:28.729Z,4.70
2023-03-18T08:18:31.673Z,5.80
2023-03-18T08:19:34.584Z,6.80
2023-03-18T08:20:38.485Z,5.00
2023-03-18T08:21:41.309Z,6.50
2023-03-18T08:22:45.990Z,6.50
2023-03-18T08:23:49.122Z,5.60
2023-03-18T08:24:52.149Z,5.30
2023-03-18T08:25:55.058Z,6.30
2023-03-18T08:26:57.905Z,6.40
2023-03-18T08:28:00.702Z,5.00
2023-03-18T08:29:03.682Z,5.50
2023-03-18T08:30:07.213Z,4.80
2023-03-18T08:31:10.386Z,4.70
2023-03-18T08:32:13.563Z,5.10
2023-03-18T08:33:16.970Z,5.20
2023-03-18T08:34:20.110Z,6.50
2023-03-18T08:35:23.577Z,7.30
2023-03-18T08:36:28.710Z,5.80
2023-03-18T08:37:31.493Z,7.50
2023-03-18T08:38:35.179Z,7.10
2023-03-18T08:39:37.980Z,6.00
2023-03-18T08:40:42.393Z,5.10
2023-03-18T08:41:45.899Z,6.00
2023-03-18T08:42:48.744Z,5.60
2023-03-18T08:43:52.516Z,4.80
2023-03-18T08:44:55.553Z,5.60
2023-03-18T08:45:58.674Z,5.90
2023-03-18T08:47:01.928Z,7.90
2023-03-18T08:48:05.634Z,6.50
2023-03-18T08:49:08.473Z,4.80
2023-03-18T08:50:12.231Z,6.30
2023-03-18T08:51:16.928Z,7.70
2023-03-18T08:52:19.930Z,5.70
2023-03-18T08:53:23.336Z,6.30
2023-03-18T08:54:27.800Z,6.00
2023-03-18T08:55:34.677Z,5.90
2023-03-18T08:56:38.213Z,7.00
2023-03-18T08:57:41.077Z,5.30
2023-03-18T08:58:48.294Z,5.00
2023-03-18T08:59:51.216Z,6.40
2023-03-18T09:00:55.616Z,5.10
2023-03-18T09:01:58.620Z,6.40
2023-03-18T09:03:01.779Z,5.80
2023-03-18T09:04:04.687Z,8.20
2023-03-18T09:05:07.787Z,3.80
2023-03-18T09:06:15.226Z,4.30
2023-03-18T09:07:19.174Z,5.90
2023-03-18T09:08:22.647Z,4.10
2023-03-18T09:09:40.929Z,4.90
2023-03-18T09:10:46.590Z,8.60
2023-03-18T09:11:49.856Z,5.20
2023-03-18T09:12:52.677Z,3.70
2023-03-18T09:13:55.714Z,7.60
2023-03-18T09:14:58.841Z,5.20
2023-03-18T09:16:01.933Z,5.40
2023-03-18T09:17:04.908Z,3.80
2023-03-18T09:18:12.170Z,5.50
2023-03-18T09:19:15.362Z,3.50
2023-03-18T09:20:18.382Z,4.30
2023-03-18T09:21:22.559Z,5.60
2023-03-18T09:22:25.312Z,5.60
2023-03-18T09:23:28.595Z,5.60
2023-03-18T09:24:31.715Z,4.50
2023-03-18T09:25:35.183Z,5.10
2023-03-18T09:26:39.468Z,4.80
2023-03-18T09:27:42.334Z,5.20
2023-03-18T09:28:45.065Z,7.70
2023-03-18T09:29:48.634Z,7.60
2023-03-18T09:30:51.981Z,5.70
2023-03-18T09:31:55.580Z,5.00
2023-03-18T09:32:59.310Z,4.10
2023-03-18T09:34:02.638Z,4.60
2023-03-18T09:35:06.729Z,5.90
2023-03-18T09:36:10.209Z,4.10
2023-03-18T09:37:14.848Z,8.50
2023-03-18T09:38:20.038Z,6.50
2023-03-18T09:39:23.201Z,4.20
2023-03-18T09:40:32.713Z,3.60
2023-03-18T09:42:01.208Z,5.90
2023-03-18T09:43:49.012Z,5.20
2023-03-18T09:44:58.788Z,7.70
2023-03-18T09:46:20.155Z,7.00
2023-03-18T09:47:53.505Z,6.70
2023-03-18T09:49:18.016Z,7.20
2023-03-18T09:50:36.904Z,5.90
2023-03-18T09:51:57.607Z,6.80
2023-03-18T09:53:14.380Z,4.10
2023-03-18T09:54:30.379Z,5.10
2023-03-18T09:55:46.561Z,7.70
2023-03-18T09:56:52.576Z,6.40
2023-03-18T09:58:01.290Z,5.50
2023-03-18T09:59:12.492Z,7.00
2023-03-18T10:00:29.477Z,5.90
2023-03-18T10:01:36.174Z,6.10
2023-03-18T10:02:46.938Z,6.50
2023-03-18T10:04:09.729Z,7.80
2023-03-18T10:05:26.008Z,7.40
2023-03-18T10:06:28.880Z,8.20
2023-03-18T10:07:42.873Z,7.40
2023-03-18T10:09:14.459Z,5.10
2023-03-18T10:10:38.760Z,5.80
2023-03-18T10:11:44.338Z,4.40
2023-03-18T10:12:53.233Z,5.40
2023-03-18T10:14:11.267Z,4.90
2023-03-18T10:15:21.612Z,6.10
2023-03-18T10:16:31.166Z,5.40
2023-03-18T10:17:47.112Z,4.80
2023-03-18T10:18:49.905Z,5.60
2023-03-18T10:19:58.895Z,5.80
2023-03-18T10:21:16.890Z,5.30
2023-03-18T10:22:30.376Z,4.30
2023-03-18T10:23:43.996Z,5.00
2023-03-18T10:25:09.727Z,4.80
2023-03-18T10:26:19.926Z,4.70
2023-03-18T10:27:38.446Z,5.00
2023-03-18T10:29:18.985Z,4.10
2023-03-18T10:30:47.361Z,6.50
2023-03-18T10:32:17.315Z,6.70
2023-03-18T10:33:22.861Z,6.80
2023-03-18T10:34:38.933Z,5.70
2023-03-18T10:35:58.272Z,4.50
2023-03-18T10:37:17.845Z,4.70
2023-03-18T10:38:26.521Z,6.90
2023-03-18T10:39:31.015Z,5.80
2023-03-18T10:40:41.345Z,4.10
2023-03-18T10:41:50.068Z,4.60
2023-03-18T10:42:55.900Z,3.80
2023-03-18T10:44:04.613Z,5.30
2023-03-18T10:45:29.933Z,4.10
2023-03-18T10:46:35.726Z,4.20
2023-03-18T10:47:44.572Z,7.00
2023-03-18T10:48:53.445Z,7.10
2023-03-18T10:50:20.064Z,6.30
2023-03-18T10:51:34.961Z,5.00
2023-03-18T10:52:47.967Z,6.40
2023-03-18T10:54:03.750Z,4.70
2023-03-18T10:55:15.636Z,5.00
2023-03-18T10:56:19.240Z,6.00
2023-03-18T10:57:23.780Z,4.90
2023-03-18T10:58:28.108Z,5.30
2023-03-18T10:59:31.183Z,5.50
2023-03-18T11:00:34.540Z,5.60
2023-03-18T11:01:39.477Z,4.90
2023-03-18T11:02:42.678Z,4.70
2023-03-18T11:03:50.418Z,6.60
2023-03-18T11:05:04.811Z,6.40
2023-03-18T11:06:26.258Z,5.10
2023-03-18T11:07:29.037Z,7.90
2023-03-18T11:08:38.302Z,5.30
2023-03-18T11:09:42.463Z,5.30
2023-03-18T11:10:46.852Z,6.40
2023-03-18T11:11:55.988Z,3.60
2023-03-18T11:13:00.372Z,6.30
2023-03-18T11:14:05.363Z,8.40
2023-03-18T11:15:12.977Z,4.80
2023-03-18T11:16:38.460Z,5.00
2023-03-18T11:17:42.152Z,5.80
2023-03-18T11:18:46.390Z,4.70
2023-03-18T11:20:01.206Z,4.10
2023-03-18T11:21:12.916Z,8.40
2023-03-18T11:22:22.341Z,5.80
2023-03-18T11:23:56.149Z,5.60
2023-03-18T11:25:11.564Z,4.70
2023-03-18T11:26:25.259Z,4.10
2023-03-18T11:27:38.593Z,5.10
2023-03-18T11:28:41.939Z,5.00
2023-03-18T11:29:50.816Z,4.70
2023-03-18T11:30:57.461Z,9.90
2023-03-18T11:32:01.829Z,4.20
2023-03-18T11:33:10.469Z,4.20
2023-03-18T11:34:19.901Z,6.20
2023-03-18T11:35:40.034Z,7.80
2023-03-18T11:36:43.466Z,5.60
2023-03-18T11:37:47.174Z,9.20
2023-03-18T11:39:02.054Z,3.90
2023-03-18T11:40:13.509Z,6.50
2023-03-18T11:41:30.242Z,5.80
2023-03-18T11:42:33.031Z,6.80
2023-03-18T11:43:37.923Z,4.60
2023-03-18T11:44:40.758Z,7.10
2023-03-18T11:46:00.244Z,7.40
2023-03-18T11:48:19.116Z,6.10
2023-03-18T11:49:28.458Z,7.00
2023-03-18T11:50:45.012Z,5.10
2023-03-18T11:52:01.261Z,5.20
2023-03-18T11:53:31.207Z,5.70
2023-03-18T11:55:11.177Z,5.00
2023-03-18T11:56:34.320Z,4.60
2023-03-18T11:58:07.052Z,7.70
2023-03-18T11:59:22.244Z,4.40
2023-03-18T12:00:48.624Z,7.70
2023-03-18T12:02:12.993Z,5.40
2023-03-18T12:04:12.403Z,5.30
2023-03-18T12:05:35.512Z,4.80
2023-03-18T12:06:54.472Z,4.80
2023-03-18T12:08:08.076Z,3.90
2023-03-18T12:09:30.486Z,8.20
2023-03-18T12:11:07.767Z,6.80
2023-03-18T12:12:34.377Z,7.80
2023-03-18T12:14:18.833Z,6.50
2023-03-18T12:15:40.595Z,6.80
2023-03-18T12:16:59.245Z,4.70
2023-03-18T12:18:26.634Z,7.30
2023-03-18T12:20:10.696Z,5.10
2023-03-18T12:21:50.803Z,5.40
2023-03-18T12:22:54.464Z,7.10
2023-03-18T12:24:33.072Z,4.40
2023-03-18T12:26:01.202Z,6.30
2023-03-18T12:27:15.967Z,4.60
2023-03-18T12:28:21.965Z,7.10
2023-03-18T12:29:42.493Z,6.40
2023-03-18T12:31:16.608Z,4.90
2023-03-18T12:32:26.491Z,5.90
2023-03-18T12:33:52.128Z,4.70
2023-03-18T12:35:07.467Z,4.20
2023-03-18T12:36:47.260Z,6.00
2023-03-18T12:38:14.140Z,5.00
2023-03-18T12:39:40.916Z,4.30
2023-03-18T12:41:21.528Z,5.80
2023-03-18T12:42:37.361Z,4.60
2023-03-18T12:43:49.867Z,4.40
2023-03-18T12:45:02.239Z,6.20
2023-03-18T12:46:20.121Z,7.60
2023-03-18T12:47:34.729Z,5.40
2023-03-18T12:48:51.871Z,6.00
2023-03-18T12:50:01.008Z,5.10
2023-03-18T12:51:10.942Z,6.00
2023-03-18T12:52:19.309Z,5.50
2023-03-18T12:53:33.504Z,5.40
2023-03-18T12:54:47.935Z,4.20
2023-03-18T12:55:57.582Z,6.50
2023-03-18T12:58:16.308Z,4.60
2023-03-18T12:59:30.406Z,4.90
2023-03-18T13:00:36.306Z,6.00
2023-03-18T13:01:53.365Z,6.50
2023-03-18T13:03:18.596Z,7.20
2023-03-18T13:04:28.450Z,6.10
2023-03-18T13:06:54.155Z,6.50
2023-03-18T13:08:36.067Z,6.40
2023-03-18T13:09:54.172Z,5.90
2023-03-18T13:11:29.325Z,6.90
2023-03-18T13:12:43.810Z,5.60
2023-03-18T13:13:54.864Z,7.20
2023-03-18T13:15:02.324Z,5.10
2023-03-18T13:16:06.074Z,7.30
2023-03-18T13:17:17.244Z,9.10
2023-03-18T13:18:25.290Z,4.90
2023-03-18T13:19:29.370Z,9.60
2023-03-18T13:20:38.749Z,6.50
2023-03-18T13:21:48.659Z,4.50
2023-03-18T13:23:26.000Z,7.00
2023-03-18T13:24:29.298Z,5.60
2023-03-18T13:25:56.721Z,5.30
2023-03-18T13:27:16.497Z,5.00
2023-03-18T13:28:38.131Z,5.60
2023-03-18T13:29:51.693Z,5.70
2023-03-18T13:31:06.539Z,7.80
2023-03-18T13:32:44.066Z,6.70
2023-03-18T13:33:53.446Z,7.70
2023-03-18T13:35:05.464Z,8.10
2023-03-18T13:36:41.804Z,6.70
2023-03-18T13:38:10.754Z,7.80
2023-03-18T13:39:31.723Z,6.30
2023-03-18T13:40:48.086Z,5.40
2023-03-18T13:42:29.984Z,6.40
2023-03-18T13:43:35.378Z,5.90
2023-03-18T13:44:48.085Z,7.60
2023-03-18T13:45:53.611Z,6.10
2023-03-18T13:47:04.004Z,8.70
2023-03-18T13:48:22.281Z,5.20
2023-03-18T13:49:29.783Z,8.30
2023-03-18T13:50:34.840Z,9.00
2023-03-18T13:51:37.561Z,9.00
2023-03-18T13:52:45.080Z,6.80
2023-03-18T13:53:50.637Z,7.30
2023-03-18T13:54:53.703Z,8.40
2023-03-18T13:55:56.630Z,6.00
2023-03-18T13:57:32.376Z,6.10
2023-03-18T13:58:45.258Z,5.70
2023-03-18T13:59:48.813Z,4.80
2023-03-18T14:00:54.622Z,7.10
2023-03-18T14:02:01.404Z,11.50
2023-03-18T14:03:42.549Z,8.40
2023-03-18T14:04:48.769Z,6.90
2023-03-18T14:06:14.610Z,7.80
2023-03-18T14:07:21.254Z,7.90
2023-03-18T14:08:39.344Z,6.90
2023-03-18T14:10:17.317Z,7.00
2023-03-18T14:11:24.211Z,10.80
2023-03-18T14:12:30.795Z,6.10
2023-03-18T14:13:33.684Z,6.20
2023-03-18T14:14:56.664Z,5.90
2023-03-18T14:16:08.083Z,7.90
2023-03-18T14:17:42.044Z,9.00
2023-03-18T14:18:44.842Z,9.90
2023-03-18T14:19:47.686Z,8.10
2023-03-18T14:20:55.220Z,7.60
2023-03-18T14:22:13.827Z,7.10
2023-03-18T14:23:34.598Z,8.00
2023-03-18T14:24:38.286Z,6.30
2023-03-18T14:25:42.682Z,8.10
2023-03-18T14:27:08.390Z,6.60
2023-03-18T14:28:11.114Z,8.30
2023-03-18T14:29:13.802Z,8.40
2023-03-18T14:30:34.908Z,8.70
2023-03-18T14:31:40.260Z,7.60
2023-03-18T14:32:57.373Z,6.40
2023-03-18T14:34:02.853Z,6.70
2023-03-18T14:35:17.559Z,7.00
2023-03-18T14:36:39.708Z,5.80
2023-03-18T14:38:07.332Z,7.00
2023-03-18T14:39:18.018Z,6.40
2023-03-18T14:40:21.441Z,5.90
2023-03-18T14:41:30.151Z,6.80
2023-03-18T14:42:58.594Z,7.80
2023-03-18T14:44:38.650Z,7.50
2023-03-18T14:45:44.961Z,8.00
2023-03-18T14:46:52.101Z,9.10
2023-03-18T14:48:02.587Z,7.40
2023-03-18T14:49:42.110Z,9.40
2023-03-18T14:50:49.224Z,7.70
2023-03-18T14:51:54.313Z,8.30
2023-03-18T14:53:08.546Z,6.00
2023-03-18T14:54:24.141Z,9.60
2023-03-18T14:55:32.695Z,6.60
2023-03-18T14:56:42.541Z,6.20
2023-03-18T14:57:45.330Z,6.20
2023-03-18T14:58:53.305Z,6.00
2023-03-18T14:59:58.750Z,7.80
2023-03-18T15:01:10.962Z,6.10
2023-03-18T15:02:30.666Z,8.20
2023-03-18T15:03:34.428Z,7.50
2023-03-18T15:04:37.216Z,8.20
2023-03-18T15:05:42.421Z,7.50
2023-03-18T15:06:45.579Z,6.70
2023-03-18T15:07:52.835Z,10.50